Time;durP1;ratioP1;P1;durP2;ratioP2;P2;SDS_P1;SDS_P2;PMS_P1;PMS_P2;Temp;Humidity;BMP_temperature;BMP_pressure;BME280_temperature;BME280_humidity;BME280_pressure;Samples;Min_cycle;Max_cycle;Signal;HPM_P1;HPM_P2
2021/12/25 00:01:07;;;;;;;12.03;8.07;;;;;;;;;;4949904;28;20291;-63
2021/12/25 00:03:36;;;;;;;14.23;9.53;;;;;;;;;;4956154;28;20711;-62
2021/12/25 00:06:03;;;;;;;12.70;9.13;;;;;;;;;;4961943;28;20674;-63
2021/12/25 00:08:32;;;;;;;13.03;9.73;;;;;;;;;;4962734;28;20200;-63
2021/12/25 00:11:00;;;;;;;12.43;9.17;;;;;;;;;;4963624;28;20230;-63
2021/12/25 00:13:27;;;;;;;12.70;9.23;;;;;;;;;;4964431;28;20232;-63
2021/12/25 00:15:54;;;;;;;11.43;8.30;;;;;;;;;;4961235;28;20221;-64
2021/12/25 00:18:22;;;;;;;11.07;8.47;;;;;;;;;;4956795;28;20320;-63
2021/12/25 00:20:50;;;;;;;12.07;8.73;;;;;;;;;;4967766;28;20208;-63
2021/12/25 00:23:21;;;;;;;12.33;8.93;;;;;;;;;;4971142;28;20228;-63
2021/12/25 00:25:55;;;;;;;11.87;8.40;;;;;;;;;;4967574;28;20211;-63
2021/12/25 00:36:13;;;;;;;11.70;8.73;;;;;;;;;;4955630;28;20522;-63
2021/12/25 00:38:42;;;;;;;14.07;9.37;;;;;;;;;;4968259;28;20745;-63
2021/12/25 00:41:10;;;;;;;15.37;10.20;;;;;;;;;;4967077;28;20209;-62
2021/12/25 00:43:38;;;;;;;18.30;11.50;;;;;;;;;;4971642;28;20221;-63
2021/12/25 00:46:05;;;;;;;18.10;11.50;;;;;;;;;;4966934;28;20216;-63
2021/12/25 00:48:33;;;;;;;21.63;13.20;;;;;;;;;;4956166;28;20248;-64
2021/12/25 00:51:01;;;;;;;21.83;12.23;;;;;;;;;;4955738;28;20208;-63
2021/12/25 00:53:28;;;;;;;20.37;12.47;;;;;;;;;;4967319;28;20659;-63
2021/12/25 00:55:56;;;;;;;20.67;13.37;;;;;;;;;;4960380;28;20208;-62
2021/12/25 00:58:23;;;;;;;20.17;12.90;;;;;;;;;;4976561;28;20232;-63
2021/12/25 01:00:51;;;;;;;19.83;12.70;;;;;;;;;;4962765;28;20274;-63
2021/12/25 01:03:19;;;;;;;19.43;12.40;;;;;;;;;;4965273;28;20242;-63
2021/12/25 01:05:46;;;;;;;19.80;12.23;;;;;;;;;;4971519;28;20201;-62
2021/12/25 01:08:14;;;;;;;19.43;12.80;;;;;;;;;;4968714;28;20212;-63
2021/12/25 01:10:41;;;;;;;21.37;13.43;;;;;;;;;;4955328;28;20216;-64
2021/12/25 01:13:22;;;;;;;24.97;14.70;;;;;;;;;;4973032;28;20232;-63
2021/12/25 01:27:33;;;;;;;27.67;16.27;;;;;;;;;;4973117;28;20216;-63
2021/12/25 01:30:20;;;;;;;30.40;16.80;;;;;;;;;;4972127;28;20307;-63
2021/12/25 01:38:00;;;;;;;33.07;18.13;;;;;;;;;;4981638;28;20216;-64
2021/12/25 01:48:41;;;;;;;28.07;15.00;;;;;;;;;;4981571;28;20614;-64
2021/12/25 01:51:08;;;;;;;26.77;14.10;;;;;;;;;;4967759;28;20275;-64
2021/12/25 01:53:36;;;;;;;29.03;15.27;;;;;;;;;;4968462;28;20229;-64
2021/12/25 01:56:04;;;;;;;26.70;14.97;;;;;;;;;;4963184;28;20690;-63
2021/12/25 01:58:33;;;;;;;23.37;13.70;;;;;;;;;;4976094;28;20227;-63
2021/12/25 02:01:00;;;;;;;24.03;13.57;;;;;;;;;;4970394;28;20206;-63
2021/12/25 02:03:33;;;;;;;22.53;13.33;;;;;;;;;;4951077;28;20224;-63
2021/12/25 02:06:01;;;;;;;20.97;13.37;;;;;;;;;;4970052;28;20215;-64
2021/12/25 02:08:29;;;;;;;24.10;14.20;;;;;;;;;;4956302;28;22042;-64
2021/12/25 02:10:56;;;;;;;22.23;13.47;;;;;;;;;;4968497;28;20263;-64
2021/12/25 02:13:24;;;;;;;20.33;13.17;;;;;;;;;;4960713;28;20243;-64
2021/12/25 02:15:54;;;;;;;19.57;13.07;;;;;;;;;;4977711;28;20215;-63
2021/12/25 02:19:10;;;;;;;20.87;11.90;;;;;;;;;;4965932;28;20228;-63
2021/12/25 02:21:19;;;;;;;22.43;13.90;;;;;;;;;;4959834;28;20676;-63
2021/12/25 02:23:48;;;;;;;21.33;14.20;;;;;;;;;;4972693;28;20698;-64
2021/12/25 02:26:17;;;;;;;21.77;13.77;;;;;;;;;;4969448;28;20686;-64
2021/12/25 02:28:45;;;;;;;22.47;14.43;;;;;;;;;;4964420;28;20219;-64
2021/12/25 02:31:14;;;;;;;24.27;15.00;;;;;;;;;;4978914;28;20216;-64
2021/12/25 02:33:41;;;;;;;27.37;16.33;;;;;;;;;;4950071;28;20232;-63
2021/12/25 02:36:10;;;;;;;27.60;15.77;;;;;;;;;;4967277;28;20816;-62
2021/12/25 02:38:37;;;;;;;27.97;15.47;;;;;;;;;;4964924;28;20220;-64
2021/12/25 02:41:05;;;;;;;27.73;16.33;;;;;;;;;;4970314;28;20251;-63
2021/12/25 02:43:32;;;;;;;26.53;15.60;;;;;;;;;;4966077;28;20274;-63
2021/12/25 02:46:02;;;;;;;28.37;15.67;;;;;;;;;;4970247;28;20204;-63
2021/12/25 02:48:31;;;;;;;29.77;15.63;;;;;;;;;;4952546;28;20224;-64
2021/12/25 02:50:58;;;;;;;32.37;16.50;;;;;;;;;;4951942;28;20921;-64
2021/12/25 02:53:26;;;;;;;32.97;18.10;;;;;;;;;;4963770;28;20242;-64
2021/12/25 02:55:53;;;;;;;37.17;18.40;;;;;;;;;;4967094;28;20212;-63
2021/12/25 02:58:20;;;;;;;35.00;17.50;;;;;;;;;;4968770;28;20255;-64
2021/12/25 03:00:51;;;;;;;36.07;17.67;;;;;;;;;;4980571;28;20666;-64
2021/12/25 03:03:18;;;;;;;34.17;18.53;;;;;;;;;;4961879;28;20234;-63
2021/12/25 03:05:46;;;;;;;36.23;18.67;;;;;;;;;;4962498;28;20200;-64
2021/12/25 03:08:14;;;;;;;37.80;18.83;;;;;;;;;;4963984;28;20299;-64
2021/12/25 03:10:42;;;;;;;36.50;18.63;;;;;;;;;;4969147;28;20198;-64
2021/12/25 03:15:45;;;;;;;32.83;17.50;;;;;;;;;;4975276;28;20255;-64
2021/12/25 03:18:13;;;;;;;32.13;18.07;;;;;;;;;;4973581;28;20242;-63
2021/12/25 03:20:44;;;;;;;27.77;16.87;;;;;;;;;;4958363;28;20216;-63
2021/12/25 03:23:16;;;;;;;32.13;18.43;;;;;;;;;;4971082;28;20253;-65
2021/12/25 03:25:44;;;;;;;29.83;17.30;;;;;;;;;;4957872;28;20216;-63
2021/12/25 03:28:12;;;;;;;27.77;16.33;;;;;;;;;;4971898;28;20676;-64
2021/12/25 03:30:39;;;;;;;30.00;15.77;;;;;;;;;;4962800;28;20926;-63
2021/12/25 03:33:08;;;;;;;30.27;17.03;;;;;;;;;;4958797;28;20227;-64
2021/12/25 03:35:35;;;;;;;28.97;16.83;;;;;;;;;;4968799;28;20205;-64
2021/12/25 03:38:07;;;;;;;29.60;16.50;;;;;;;;;;4952451;28;20204;-64
2021/12/25 03:40:35;;;;;;;29.90;16.83;;;;;;;;;;4956776;28;20260;-64
2021/12/25 03:43:04;;;;;;;29.70;16.47;;;;;;;;;;4954681;28;20645;-62
2021/12/25 03:45:32;;;;;;;30.47;16.40;;;;;;;;;;4960854;28;20308;-63
2021/12/25 03:48:59;;;;;;;29.57;16.47;;;;;;;;;;4974413;28;20651;-63
2021/12/25 03:59:04;;;;;;;31.97;17.27;;;;;;;;;;4972806;28;20231;-64
2021/12/25 04:01:57;;;;;;;33.37;18.23;;;;;;;;;;4966479;28;20204;-63
2021/12/25 04:04:34;;;;;;;31.67;17.33;;;;;;;;;;4963203;28;20226;-63
2021/12/25 04:07:16;;;;;;;34.07;18.10;;;;;;;;;;4962633;28;20220;-63
2021/12/25 04:09:45;;;;;;;30.73;17.23;;;;;;;;;;4962319;28;20204;-62
2021/12/25 04:12:13;;;;;;;30.70;17.63;;;;;;;;;;4960453;28;20208;-64
2021/12/25 04:14:41;;;;;;;31.43;17.00;;;;;;;;;;4968336;28;20764;-62
2021/12/25 04:17:08;;;;;;;36.53;17.73;;;;;;;;;;4962726;28;20679;-62
2021/12/25 04:19:36;;;;;;;32.97;16.70;;;;;;;;;;4948223;28;20258;-64
2021/12/25 04:22:11;;;;;;;31.00;15.97;;;;;;;;;;4955201;28;20292;-64
2021/12/25 04:24:39;;;;;;;33.83;16.67;;;;;;;;;;4964709;28;20263;-64
2021/12/25 04:27:11;;;;;;;29.73;15.93;;;;;;;;;;4961425;28;20220;-62
2021/12/25 04:30:18;;;;;;;29.53;15.07;;;;;;;;;;4971642;28;20291;-64
2021/12/25 04:42:48;;;;;;;24.10;13.43;;;;;;;;;;4969032;28;20200;-63
2021/12/25 05:03:32;;;;;;;26.53;14.30;;;;;;;;;;4981061;28;20252;-62
2021/12/25 05:05:56;;;;;;;28.57;14.73;;;;;;;;;;4969986;28;20210;-64
2021/12/25 05:08:24;;;;;;;27.37;13.97;;;;;;;;;;4972982;28;20204;-63
2021/12/25 05:10:51;;;;;;;25.33;14.30;;;;;;;;;;4969831;28;20200;-64
2021/12/25 05:13:19;;;;;;;29.30;14.93;;;;;;;;;;4951947;28;20663;-64
2021/12/25 05:15:47;;;;;;;29.87;15.30;;;;;;;;;;4965301;28;20212;-63
2021/12/25 05:18:14;;;;;;;30.07;14.93;;;;;;;;;;4964893;28;20219;-63
2021/12/25 05:20:42;;;;;;;28.43;15.27;;;;;;;;;;4962900;28;20301;-64
2021/12/25 05:23:10;;;;;;;31.03;15.23;;;;;;;;;;4951928;28;20232;-64
2021/12/25 05:25:40;;;;;;;28.17;15.50;;;;;;;;;;4957861;28;20200;-64
2021/12/25 05:28:08;;;;;;;30.57;15.87;;;;;;;;;;4961018;28;20201;-64
2021/12/25 05:30:35;;;;;;;29.67;15.27;;;;;;;;;;4969884;28;20216;-64
2021/12/25 05:33:03;;;;;;;29.13;15.23;;;;;;;;;;4971054;28;20255;-63
2021/12/25 05:35:33;;;;;;;27.67;14.43;;;;;;;;;;4960113;28;20208;-64
2021/12/25 05:38:01;;;;;;;29.60;15.30;;;;;;;;;;4968919;28;20200;-64
2021/12/25 05:40:28;;;;;;;26.97;14.83;;;;;;;;;;4961184;28;20223;-64
2021/12/25 05:42:57;;;;;;;27.57;15.30;;;;;;;;;;4973357;28;20582;-64
2021/12/25 05:45:24;;;;;;;25.67;14.30;;;;;;;;;;4968457;28;20215;-64
2021/12/25 05:47:52;;;;;;;24.17;14.10;;;;;;;;;;4961292;28;20208;-64
2021/12/25 05:50:19;;;;;;;25.67;15.23;;;;;;;;;;4974703;28;20216;-64
2021/12/25 05:52:46;;;;;;;22.50;13.50;;;;;;;;;;4962056;28;20696;-63
2021/12/25 05:55:14;;;;;;;25.00;14.13;;;;;;;;;;4967622;28;20212;-62
2021/12/25 05:57:41;;;;;;;24.00;13.77;;;;;;;;;;4955236;28;20200;-64
2021/12/25 06:00:10;;;;;;;25.63;14.33;;;;;;;;;;4964176;28;20478;-62
2021/12/25 06:02:37;;;;;;;28.20;14.57;;;;;;;;;;4977327;28;20209;-63
2021/12/25 06:05:06;;;;;;;28.70;14.93;;;;;;;;;;4966081;28;20204;-64
2021/12/25 06:07:34;;;;;;;29.13;15.23;;;;;;;;;;4966426;28;20240;-61
2021/12/25 06:10:03;;;;;;;25.90;15.10;;;;;;;;;;4975391;28;20212;-62
2021/12/25 06:12:32;;;;;;;26.27;14.33;;;;;;;;;;4967180;28;20270;-62
2021/12/25 06:15:01;;;;;;;25.10;13.93;;;;;;;;;;4969268;28;20623;-64
2021/12/25 06:17:29;;;;;;;29.00;15.53;;;;;;;;;;4967310;28;20213;-63
2021/12/25 06:19:56;;;;;;;26.93;14.13;;;;;;;;;;4969948;28;20272;-64
2021/12/25 06:22:24;;;;;;;25.93;15.20;;;;;;;;;;4954046;28;20211;-63
2021/12/25 06:24:52;;;;;;;26.50;15.53;;;;;;;;;;4952095;28;20212;-64
2021/12/25 06:27:20;;;;;;;30.50;16.13;;;;;;;;;;4972130;28;20212;-63
2021/12/25 06:29:51;;;;;;;30.37;16.07;;;;;;;;;;4950347;28;22777;-64
2021/12/25 06:32:19;;;;;;;28.57;16.10;;;;;;;;;;4949113;28;20574;-64
2021/12/25 06:34:47;;;;;;;27.63;15.67;;;;;;;;;;4955591;28;20261;-64
2021/12/25 06:37:14;;;;;;;27.23;15.20;;;;;;;;;;4953039;28;20217;-63
2021/12/25 06:39:42;;;;;;;25.43;14.93;;;;;;;;;;4961428;28;20256;-62
2021/12/25 06:42:09;;;;;;;29.07;14.10;;;;;;;;;;4943816;28;20624;-64
2021/12/25 06:44:37;;;;;;;27.87;15.80;;;;;;;;;;4962500;28;20788;-64
2021/12/25 06:47:05;;;;;;;29.33;16.23;;;;;;;;;;4956952;28;20208;-64
2021/12/25 06:49:34;;;;;;;30.50;16.57;;;;;;;;;;4967752;28;20441;-62
2021/12/25 06:52:07;;;;;;;31.20;15.40;;;;;;;;;;4956090;28;20219;-63
2021/12/25 06:54:35;;;;;;;30.60;16.63;;;;;;;;;;4965290;28;20772;-64
2021/12/25 06:57:03;;;;;;;28.27;15.40;;;;;;;;;;4950425;28;20589;-64
2021/12/25 06:59:31;;;;;;;29.23;15.03;;;;;;;;;;4949613;28;20224;-62
2021/12/25 07:01:58;;;;;;;26.93;16.30;;;;;;;;;;4965361;28;20270;-63
2021/12/25 07:04:26;;;;;;;28.03;14.87;;;;;;;;;;4957899;28;20255;-63
2021/12/25 07:06:54;;;;;;;23.83;13.93;;;;;;;;;;4964493;28;20623;-64
2021/12/25 07:09:21;;;;;;;22.30;12.57;;;;;;;;;;4971105;28;21575;-62
2021/12/25 07:11:48;;;;;;;24.20;13.63;;;;;;;;;;4973447;28;20275;-63
2021/12/25 07:14:16;;;;;;;22.63;13.10;;;;;;;;;;4961921;28;20228;-61
2021/12/25 07:16:44;;;;;;;26.40;13.80;;;;;;;;;;4966712;28;20227;-62
2021/12/25 07:19:15;;;;;;;20.73;12.53;;;;;;;;;;4969804;28;20201;-63
2021/12/25 07:21:45;;;;;;;21.97;12.93;;;;;;;;;;4976212;28;20204;-62
2021/12/25 07:24:14;;;;;;;23.33;12.73;;;;;;;;;;4956491;28;20216;-64
2021/12/25 07:26:42;;;;;;;20.70;12.23;;;;;;;;;;4952929;28;20327;-64
2021/12/25 07:29:09;;;;;;;21.10;13.03;;;;;;;;;;4968097;28;20201;-64
2021/12/25 07:31:38;;;;;;;17.60;11.47;;;;;;;;;;4946019;28;20212;-63
2021/12/25 07:34:06;;;;;;;22.17;11.57;;;;;;;;;;4957945;28;20231;-63
2021/12/25 07:36:34;;;;;;;17.33;10.97;;;;;;;;;;4940303;28;20204;-63
2021/12/25 07:39:01;;;;;;;18.23;10.93;;;;;;;;;;4947863;28;20275;-63
2021/12/25 07:41:28;;;;;;;18.70;11.03;;;;;;;;;;4958472;28;20237;-64
2021/12/25 07:43:56;;;;;;;19.53;11.33;;;;;;;;;;4957443;28;21611;-63
2021/12/25 07:46:24;;;;;;;17.60;10.53;;;;;;;;;;4967076;28;20662;-64
2021/12/25 07:48:51;;;;;;;18.20;10.57;;;;;;;;;;4949765;28;20758;-62
2021/12/25 07:51:19;;;;;;;19.00;11.17;;;;;;;;;;4950950;28;20227;-64
2021/12/25 07:53:46;;;;;;;20.20;12.27;;;;;;;;;;4949789;28;20236;-62
2021/12/25 07:56:14;;;;;;;18.93;11.43;;;;;;;;;;4959048;28;20212;-62
2021/12/25 07:58:42;;;;;;;18.23;10.93;;;;;;;;;;4951306;28;20558;-63
2021/12/25 08:01:10;;;;;;;20.57;11.23;;;;;;;;;;4958047;28;20232;-62
2021/12/25 08:03:38;;;;;;;18.57;11.00;;;;;;;;;;4950945;28;20226;-64
2021/12/25 08:06:06;;;;;;;17.30;11.03;;;;;;;;;;4948111;28;20208;-63
2021/12/25 08:08:34;;;;;;;43.33;26.07;;;;;;;;;;4950140;28;20212;-63
2021/12/25 08:11:01;;;;;;;26.23;17.30;;;;;;;;;;4970275;28;20212;-64
2021/12/25 08:13:28;;;;;;;26.07;15.20;;;;;;;;;;4952493;28;20228;-64
2021/12/25 08:15:56;;;;;;;28.13;17.20;;;;;;;;;;4958952;28;20220;-63
2021/12/25 08:18:24;;;;;;;24.53;15.27;;;;;;;;;;4949333;28;20586;-63
2021/12/25 08:20:51;;;;;;;20.00;14.13;;;;;;;;;;4956185;28;20953;-63
2021/12/25 08:23:19;;;;;;;16.37;11.60;;;;;;;;;;4957272;28;21224;-63
2021/12/25 08:25:46;;;;;;;13.27;9.37;;;;;;;;;;4948810;28;20562;-63
2021/12/25 08:28:13;;;;;;;14.17;9.10;;;;;;;;;;4953382;28;20207;-63
2021/12/25 08:30:41;;;;;;;12.93;8.47;;;;;;;;;;4950617;28;20227;-63
2021/12/25 08:33:08;;;;;;;13.70;8.87;;;;;;;;;;4963615;28;20711;-64
2021/12/25 08:35:37;;;;;;;20.17;14.37;;;;;;;;;;4969592;28;20654;-64
2021/12/25 08:38:04;;;;;;;48.27;39.20;;;;;;;;;;4951887;28;20216;-64
2021/12/25 08:40:31;;;;;;;15.60;11.57;;;;;;;;;;4971931;28;20506;-64
2021/12/25 08:43:02;;;;;;;14.37;9.93;;;;;;;;;;4959684;28;20290;-64
2021/12/25 08:48:10;;;;;;;14.73;8.97;;;;;;;;;;4967719;28;20334;-64
2021/12/25 08:50:37;;;;;;;14.37;9.10;;;;;;;;;;4948847;28;20212;-64
2021/12/25 08:53:05;;;;;;;14.40;9.30;;;;;;;;;;4949584;28;20224;-62
2021/12/25 08:55:33;;;;;;;30.10;18.90;;;;;;;;;;4964442;28;20213;-62
2021/12/25 08:58:00;;;;;;;39.37;27.73;;;;;;;;;;4960030;28;23457;-63
2021/12/25 09:00:28;;;;;;;18.73;12.90;;;;;;;;;;4959054;28;20259;-64
2021/12/25 09:02:56;;;;;;;16.87;11.63;;;;;;;;;;4951390;28;20232;-63
2021/12/25 09:05:24;;;;;;;16.10;9.60;;;;;;;;;;4939809;28;20208;-63
2021/12/25 09:07:51;;;;;;;12.70;9.53;;;;;;;;;;4960770;28;20274;-62
2021/12/25 09:10:19;;;;;;;13.43;9.03;;;;;;;;;;4941496;28;20205;-63
2021/12/25 09:12:49;;;;;;;11.97;8.83;;;;;;;;;;4943988;28;20232;-63
2021/12/25 09:15:17;;;;;;;12.90;8.90;;;;;;;;;;4961672;28;21010;-62
2021/12/25 09:17:46;;;;;;;14.60;10.30;;;;;;;;;;4958794;28;20723;-63
2021/12/25 09:20:16;;;;;;;14.20;11.10;;;;;;;;;;4936891;28;20234;-63
2021/12/25 09:22:44;;;;;;;19.17;16.43;;;;;;;;;;4937715;28;20232;-63
2021/12/25 09:25:12;;;;;;;14.60;10.40;;;;;;;;;;4955654;28;20233;-63
2021/12/25 09:27:39;;;;;;;15.33;10.47;;;;;;;;;;4967185;28;20212;-64
2021/12/25 09:30:08;;;;;;;15.40;10.47;;;;;;;;;;4942341;28;20208;-64
2021/12/25 09:32:36;;;;;;;13.97;10.10;;;;;;;;;;4958580;28;20212;-62
2021/12/25 09:35:04;;;;;;;12.47;9.60;;;;;;;;;;4955471;28;20619;-64
2021/12/25 09:37:32;;;;;;;12.70;9.13;;;;;;;;;;4949531;28;20290;-65
2021/12/25 09:40:00;;;;;;;12.53;9.77;;;;;;;;;;4959644;28;20216;-63
2021/12/25 09:42:27;;;;;;;13.27;9.37;;;;;;;;;;4957791;28;20212;-64
2021/12/25 09:44:55;;;;;;;11.77;9.87;;;;;;;;;;4934139;28;20254;-63
2021/12/25 09:47:23;;;;;;;13.50;8.30;;;;;;;;;;4959457;28;20205;-63
2021/12/25 09:49:50;;;;;;;14.63;11.17;;;;;;;;;;4959906;28;20221;-64
2021/12/25 09:52:18;;;;;;;22.03;15.10;;;;;;;;;;4942365;28;20204;-62
2021/12/25 09:54:46;;;;;;;20.73;14.47;;;;;;;;;;4938971;28;20263;-63
2021/12/25 09:57:14;;;;;;;14.13;9.43;;;;;;;;;;4953261;28;20216;-63
2021/12/25 09:59:42;;;;;;;13.27;8.93;;;;;;;;;;4957439;28;20220;-63
2021/12/25 10:02:15;;;;;;;11.47;8.23;;;;;;;;;;4936239;28;20239;-64
2021/12/25 10:04:46;;;;;;;11.73;8.37;;;;;;;;;;4935010;28;20225;-63
2021/12/25 10:07:24;;;;;;;12.57;8.63;;;;;;;;;;4945969;28;20208;-63
2021/12/25 10:10:06;;;;;;;14.20;8.00;;;;;;;;;;4958846;28;20220;-63
2021/12/25 10:12:51;;;;;;;10.80;7.80;;;;;;;;;;4960978;28;20295;-64
2021/12/25 10:15:34;;;;;;;10.47;8.43;;;;;;;;;;4947004;28;20224;-67
2021/12/25 10:18:04;;;;;;;10.80;8.07;;;;;;;;;;4951674;28;20209;-62
2021/12/25 10:20:41;;;;;;;11.50;7.90;;;;;;;;;;4981853;28;20232;-63
2021/12/25 10:23:22;;;;;;;12.53;8.57;;;;;;;;;;4980714;28;20241;-63
2021/12/25 10:26:05;;;;;;;11.80;8.33;;;;;;;;;;4963172;28;20287;-63
2021/12/25 10:28:36;;;;;;;13.03;9.10;;;;;;;;;;4965232;28;20212;-64
2021/12/25 10:31:13;;;;;;;10.77;7.93;;;;;;;;;;4965998;28;20210;-62
2021/12/25 10:33:51;;;;;;;11.43;8.17;;;;;;;;;;4975930;28;20278;-63
2021/12/25 10:36:27;;;;;;;11.90;8.27;;;;;;;;;;4968227;28;20216;-63
2021/12/25 10:39:07;;;;;;;13.60;10.40;;;;;;;;;;4967626;28;20236;-63
2021/12/25 10:41:50;;;;;;;14.57;11.67;;;;;;;;;;4960892;28;20303;-63
2021/12/25 10:44:23;;;;;;;12.10;8.70;;;;;;;;;;4978486;28;20670;-63
2021/12/25 10:46:57;;;;;;;11.00;8.63;;;;;;;;;;4961226;28;20201;-63
2021/12/25 10:49:43;;;;;;;9.53;7.73;;;;;;;;;;4961025;28;20592;-63
2021/12/25 10:52:22;;;;;;;11.40;8.20;;;;;;;;;;4962528;28;20230;-63
2021/12/25 10:54:59;;;;;;;12.13;8.03;;;;;;;;;;4959416;28;20213;-63
2021/12/25 10:57:35;;;;;;;12.17;8.00;;;;;;;;;;4951737;28;20274;-63
2021/12/25 11:00:29;;;;;;;12.23;7.60;;;;;;;;;;4967775;28;20209;-64
2021/12/25 11:03:05;;;;;;;11.70;8.10;;;;;;;;;;4963687;28;20232;-63
2021/12/25 11:05:36;;;;;;;10.07;7.23;;;;;;;;;;4953835;28;20212;-63
2021/12/25 11:08:10;;;;;;;7.70;6.90;;;;;;;;;;4972110;28;20216;-62
2021/12/25 11:11:04;;;;;;;10.43;8.10;;;;;;;;;;4949499;28;20227;-63
2021/12/25 11:13:43;;;;;;;9.40;7.33;;;;;;;;;;4968924;28;20698;-63
2021/12/25 11:16:21;;;;;;;8.47;6.90;;;;;;;;;;4963731;28;20208;-63
2021/12/25 11:19:10;;;;;;;9.13;6.60;;;;;;;;;;4960056;28;20222;-64
2021/12/25 11:21:44;;;;;;;9.43;6.13;;;;;;;;;;4949820;28;20226;-64
2021/12/25 11:24:13;;;;;;;9.43;6.80;;;;;;;;;;4962007;28;20306;-64
2021/12/25 11:26:43;;;;;;;11.13;8.33;;;;;;;;;;4946024;28;20544;-64
2021/12/25 11:29:21;;;;;;;7.20;5.37;;;;;;;;;;4969942;28;20590;-64
2021/12/25 11:31:52;;;;;;;7.80;6.13;;;;;;;;;;4975420;28;20697;-63
2021/12/25 11:34:28;;;;;;;10.87;5.10;;;;;;;;;;4979152;28;20248;-63
2021/12/25 11:37:07;;;;;;;9.77;6.03;;;;;;;;;;4966209;28;20661;-63
2021/12/25 11:39:37;;;;;;;8.63;6.80;;;;;;;;;;4961030;28;20251;-63
2021/12/25 11:42:11;;;;;;;9.60;8.60;;;;;;;;;;4961714;28;21044;-62
2021/12/25 11:44:50;;;;;;;10.13;7.53;;;;;;;;;;4949382;28;20247;-63
2021/12/25 11:47:40;;;;;;;10.10;9.00;;;;;;;;;;4972073;28;20903;-61
2021/12/25 11:50:13;;;;;;;6.63;4.97;;;;;;;;;;4951320;28;20221;-63
2021/12/25 11:53:04;;;;;;;5.80;5.00;;;;;;;;;;4962718;28;20216;-62
2021/12/25 11:58:56;;;;;;;6.03;4.20;;;;;;;;;;4969412;28;20223;-63
2021/12/25 12:01:32;;;;;;;5.20;4.70;;;;;;;;;;4960101;28;20233;-63
2021/12/25 12:04:14;;;;;;;5.50;4.30;;;;;;;;;;4955968;28;20251;-63
2021/12/25 12:06:45;;;;;;;4.53;4.10;;;;;;;;;;4965368;28;20227;-63
2021/12/25 12:09:20;;;;;;;6.77;4.83;;;;;;;;;;4979799;28;20287;-63
2021/12/25 12:11:51;;;;;;;4.63;4.17;;;;;;;;;;4971290;28;20242;-63
2021/12/25 12:14:22;;;;;;;5.73;4.53;;;;;;;;;;4972538;28;20263;-64
2021/12/25 12:16:52;;;;;;;4.63;3.90;;;;;;;;;;4972333;28;20299;-64
2021/12/25 12:19:37;;;;;;;4.37;3.90;;;;;;;;;;4969351;28;20232;-64
2021/12/25 12:22:28;;;;;;;4.77;4.27;;;;;;;;;;4974270;28;20226;-61
2021/12/25 12:27:37;;;;;;;5.53;4.37;;;;;;;;;;4981785;28;20204;-62
2021/12/25 12:30:10;;;;;;;5.90;4.13;;;;;;;;;;4972143;28;20207;-63
2021/12/25 12:32:46;;;;;;;5.23;4.57;;;;;;;;;;4975379;28;20209;-63
2021/12/25 12:35:28;;;;;;;5.23;4.20;;;;;;;;;;4977651;28;20294;-62
2021/12/25 12:38:14;;;;;;;5.57;4.60;;;;;;;;;;4973735;28;20208;-63
2021/12/25 12:40:45;;;;;;;6.07;4.63;;;;;;;;;;4978894;28;20208;-63
2021/12/25 12:43:15;;;;;;;5.63;4.70;;;;;;;;;;4978552;28;20275;-63
2021/12/25 12:45:53;;;;;;;6.80;5.43;;;;;;;;;;4961367;28;20208;-64
2021/12/25 12:48:31;;;;;;;5.57;4.83;;;;;;;;;;4979578;28;20208;-63
2021/12/25 12:51:01;;;;;;;5.43;4.67;;;;;;;;;;4972562;28;20210;-63
2021/12/25 12:53:43;;;;;;;6.33;5.03;;;;;;;;;;4971346;28;20300;-63
2021/12/25 12:56:17;;;;;;;8.67;5.03;;;;;;;;;;4984245;28;20658;-63
2021/12/25 12:58:51;;;;;;;5.80;5.20;;;;;;;;;;4980956;28;20208;-63
2021/12/25 13:01:25;;;;;;;5.67;5.17;;;;;;;;;;4978593;28;20743;-63
2021/12/25 13:03:56;;;;;;;5.53;5.00;;;;;;;;;;4965203;28;20251;-64
2021/12/25 13:06:31;;;;;;;8.63;6.83;;;;;;;;;;4971093;28;20236;-63
2021/12/25 13:09:06;;;;;;;7.93;5.97;;;;;;;;;;4979192;28;20204;-63
2021/12/25 13:11:42;;;;;;;7.87;6.20;;;;;;;;;;4979045;28;20210;-63
2021/12/25 13:14:17;;;;;;;8.23;5.63;;;;;;;;;;4980206;28;20647;-62
2021/12/25 13:16:47;;;;;;;6.93;5.67;;;;;;;;;;4967284;28;20204;-64
2021/12/25 13:19:15;;;;;;;6.97;5.43;;;;;;;;;;4981073;28;20276;-64
2021/12/25 13:21:45;;;;;;;6.27;5.43;;;;;;;;;;4979365;28;20749;-63
2021/12/25 13:24:15;;;;;;;8.40;5.97;;;;;;;;;;4973474;28;20255;-62
2021/12/25 13:26:50;;;;;;;7.53;5.73;;;;;;;;;;4982122;28;20223;-64
2021/12/25 13:29:23;;;;;;;5.93;5.13;;;;;;;;;;4969549;28;20201;-64
2021/12/25 13:31:51;;;;;;;6.27;5.67;;;;;;;;;;4973603;28;20275;-63
2021/12/25 13:34:23;;;;;;;7.60;6.20;;;;;;;;;;4957952;28;20231;-62
2021/12/25 13:36:54;;;;;;;7.57;6.10;;;;;;;;;;4985008;28;20216;-64
2021/12/25 13:39:28;;;;;;;7.13;6.00;;;;;;;;;;4969754;28;20220;-62
2021/12/25 13:42:13;;;;;;;8.57;6.93;;;;;;;;;;4977463;28;20231;-64
2021/12/25 13:44:44;;;;;;;9.77;8.23;;;;;;;;;;4958552;28;20255;-62
2021/12/25 13:47:16;;;;;;;8.13;6.53;;;;;;;;;;4965843;28;20211;-63
2021/12/25 13:49:48;;;;;;;9.37;7.07;;;;;;;;;;4972736;28;20208;-63
2021/12/25 13:52:24;;;;;;;7.90;6.30;;;;;;;;;;4989216;28;20240;-62
2021/12/25 13:54:58;;;;;;;8.80;7.03;;;;;;;;;;4987705;28;20239;-61
2021/12/25 13:57:31;;;;;;;8.43;7.30;;;;;;;;;;4968765;28;20204;-63
2021/12/25 14:00:08;;;;;;;9.63;7.77;;;;;;;;;;4978394;28;20223;-64
2021/12/25 14:02:38;;;;;;;13.13;9.63;;;;;;;;;;4967107;28;20252;-64
2021/12/25 14:05:06;;;;;;;11.73;9.30;;;;;;;;;;4966341;28;20204;-63
2021/12/25 14:07:36;;;;;;;10.50;8.60;;;;;;;;;;4975903;28;20211;-63
2021/12/25 14:10:08;;;;;;;8.27;7.00;;;;;;;;;;4956341;28;20200;-63
2021/12/25 14:12:37;;;;;;;9.70;7.70;;;;;;;;;;4956999;28;20219;-64
2021/12/25 14:15:06;;;;;;;12.43;7.80;;;;;;;;;;4957668;28;20622;-63
2021/12/25 14:17:35;;;;;;;9.17;7.50;;;;;;;;;;4968878;28;20201;-63
2021/12/25 14:20:09;;;;;;;9.90;7.73;;;;;;;;;;4960598;28;20299;-63
2021/12/25 14:22:51;;;;;;;8.90;6.67;;;;;;;;;;4958985;28;20686;-63
2021/12/25 14:25:26;;;;;;;8.43;7.10;;;;;;;;;;4956307;28;22571;-62
2021/12/25 14:28:03;;;;;;;8.20;7.27;;;;;;;;;;4957439;28;20238;-63
2021/12/25 14:30:35;;;;;;;10.40;7.80;;;;;;;;;;4953637;28;20256;-62
2021/12/25 14:33:03;;;;;;;10.20;8.30;;;;;;;;;;4954037;28;21125;-62
2021/12/25 14:35:33;;;;;;;11.33;8.73;;;;;;;;;;4957937;28;20299;-64
2021/12/25 14:38:01;;;;;;;19.47;13.90;;;;;;;;;;4956405;28;20473;-63
2021/12/25 14:40:34;;;;;;;19.53;13.00;;;;;;;;;;4963971;28;20212;-63
2021/12/25 14:43:04;;;;;;;12.43;9.90;;;;;;;;;;4960459;28;20239;-63
2021/12/25 14:45:47;;;;;;;15.33;10.93;;;;;;;;;;4959461;28;20935;-62
2021/12/25 14:48:24;;;;;;;14.33;10.70;;;;;;;;;;4956513;28;20294;-63
2021/12/25 14:50:58;;;;;;;13.50;10.00;;;;;;;;;;4957138;28;20215;-63
2021/12/25 14:53:33;;;;;;;13.27;10.10;;;;;;;;;;4969164;28;20232;-65
2021/12/25 14:56:03;;;;;;;11.80;9.67;;;;;;;;;;4965816;28;20618;-62
2021/12/25 14:58:36;;;;;;;13.67;10.10;;;;;;;;;;4961827;28;20216;-63
2021/12/25 15:01:07;;;;;;;14.03;11.50;;;;;;;;;;4950535;28;21591;-62
2021/12/25 15:04:05;;;;;;;13.60;10.77;;;;;;;;;;4949921;28;20232;-61
2021/12/25 15:07:12;;;;;;;17.37;13.33;;;;;;;;;;4944190;28;20233;-62
2021/12/25 15:09:44;;;;;;;13.13;11.20;;;;;;;;;;4844951;29;20315;-63
2021/12/25 15:12:16;;;;;;;14.90;10.57;;;;;;;;;;4869752;28;20232;-62
2021/12/25 15:14:48;;;;;;;14.80;11.07;;;;;;;;;;4949185;28;20275;-62
2021/12/25 15:17:24;;;;;;;14.63;12.87;;;;;;;;;;4946796;28;20211;-63
2021/12/25 15:20:05;;;;;;;16.17;12.90;;;;;;;;;;4956880;28;20200;-63
2021/12/25 15:22:33;;;;;;;16.50;12.70;;;;;;;;;;4967585;28;20229;-63
2021/12/25 15:25:21;;;;;;;14.47;11.80;;;;;;;;;;4942638;28;20897;-63
2021/12/25 15:27:51;;;;;;;15.00;12.30;;;;;;;;;;4954920;28;20295;-63
2021/12/25 15:30:22;;;;;;;16.40;12.50;;;;;;;;;;4953945;28;20995;-63
2021/12/25 15:32:58;;;;;;;15.23;11.77;;;;;;;;;;4939780;28;20632;-63
2021/12/25 15:35:29;;;;;;;21.27;16.50;;;;;;;;;;4957495;28;20662;-63
2021/12/25 15:38:04;;;;;;;18.63;14.57;;;;;;;;;;4944723;28;20206;-63
2021/12/25 15:40:37;;;;;;;19.97;14.80;;;;;;;;;;4953447;28;20668;-64
2021/12/25 15:43:12;;;;;;;18.27;14.80;;;;;;;;;;4952089;28;20642;-63
2021/12/25 15:45:45;;;;;;;18.73;14.43;;;;;;;;;;4965236;28;20223;-63
2021/12/25 15:48:15;;;;;;;16.17;12.00;;;;;;;;;;4950166;28;20219;-63
2021/12/25 15:50:43;;;;;;;13.17;10.70;;;;;;;;;;4958440;28;20277;-63
2021/12/25 15:53:29;;;;;;;13.80;11.23;;;;;;;;;;4964090;28;20866;-64
2021/12/25 15:56:05;;;;;;;16.47;12.50;;;;;;;;;;4963557;28;20219;-63
2021/12/25 15:58:38;;;;;;;17.97;13.00;;;;;;;;;;4958425;28;21886;-61
2021/12/25 16:01:09;;;;;;;18.97;13.57;;;;;;;;;;4967881;28;20235;-62
2021/12/25 16:03:37;;;;;;;42.43;28.50;;;;;;;;;;4965122;28;20251;-63
2021/12/25 16:06:07;;;;;;;75.33;44.30;;;;;;;;;;4964965;28;20200;-63
2021/12/25 16:08:42;;;;;;;110.00;61.40;;;;;;;;;;4951413;28;20200;-63